sensor_id;sensor_type;location;lat;lon;timestamp;pressure;altitude;pressure_sealevel;temperature;humidity
41862;BME280;27537;57.134;-2.136;2023-05-31T00:00:30;102709.31;;;14.41;100.00
41862;BME280;27537;57.134;-2.136;2023-05-31T00:02:56;102708.75;;;14.27;100.00
41862;BME280;27537;57.134;-2.136;2023-05-31T00:05:23;102713.25;;;14.20;100.00
41862;BME280;27537;57.134;-2.136;2023-05-31T00:07:50;102720.56;;;14.07;100.00
41862;BME280;27537;57.134;-2.136;2023-05-31T00:10:17;102714.91;;;14.27;100.00
41862;BME280;27537;57.134;-2.136;2023-05-31T00:12:44;102708.88;;;14.20;100.00
41862;BME280;27537;57.134;-2.136;2023-05-31T00:15:11;102714.91;;;14.27;100.00
41862;BME280;27537;57.134;-2.136;2023-05-31T00:17:37;102705.59;;;14.09;100.00
41862;BME280;27537;57.134;-2.136;2023-05-31T00:20:07;102713.75;;;13.97;100.00
41862;BME280;27537;57.134;-2.136;2023-05-31T00:22:34;102718.06;;;14.01;100.00
41862;BME280;27537;57.134;-2.136;2023-05-31T00:25:00;102715.50;;;13.98;100.00
41862;BME280;27537;57.134;-2.136;2023-05-31T00:27:27;102722.41;;;14.03;100.00
41862;BME280;27537;57.134;-2.136;2023-05-31T00:29:54;102713.25;;;13.79;100.00
41862;BME280;27537;57.134;-2.136;2023-05-31T00:32:21;102721.22;;;13.75;100.00
41862;BME280;27537;57.134;-2.136;2023-05-31T00:34:47;102717.34;;;13.93;100.00
41862;BME280;27537;57.134;-2.136;2023-05-31T00:37:14;102709.97;;;14.10;100.00
41862;BME280;27537;57.134;-2.136;2023-05-31T00:39:41;102714.25;;;14.16;100.00
41862;BME280;27537;57.134;-2.136;2023-05-31T00:42:08;102699.09;;;14.27;100.00
41862;BME280;27537;57.134;-2.136;2023-05-31T00:44:35;102718.81;;;14.48;100.00
41862;BME280;27537;57.134;-2.136;2023-05-31T00:47:02;102705.34;;;14.20;100.00
41862;BME280;27537;57.134;-2.136;2023-05-31T00:49:29;102722.16;;;14.16;100.00
41862;BME280;27537;57.134;-2.136;2023-05-31T00:51:57;102701.50;;;13.96;100.00
41862;BME280;27537;57.134;-2.136;2023-05-31T00:54:24;102711.16;;;13.95;100.00
41862;BME280;27537;57.134;-2.136;2023-05-31T00:56:52;102700.53;;;14.00;100.00
41862;BME280;27537;57.134;-2.136;2023-05-31T00:59:19;102686.69;;;13.90;100.00
41862;BME280;27537;57.134;-2.136;2023-05-31T01:01:45;102695.00;;;14.12;100.00
41862;BME280;27537;57.134;-2.136;2023-05-31T01:04:12;102682.59;;;14.17;100.00
41862;BME280;27537;57.134;-2.136;2023-05-31T01:06:39;102687.25;;;14.06;100.00
41862;BME280;27537;57.134;-2.136;2023-05-31T01:09:06;102645.25;;;13.98;100.00
41862;BME280;27537;57.134;-2.136;2023-05-31T01:12:16;102687.56;;;13.89;100.00
41862;BME280;27537;57.134;-2.136;2023-05-31T01:15:16;102673.44;;;13.93;100.00
41862;BME280;27537;57.134;-2.136;2023-05-31T01:18:01;102674.69;;;14.17;100.00
41862;BME280;27537;57.134;-2.136;2023-05-31T01:20:34;102674.88;;;14.10;100.00
41862;BME280;27537;57.134;-2.136;2023-05-31T01:26:28;102683.47;;;14.18;100.00
41862;BME280;27537;57.134;-2.136;2023-05-31T01:28:59;102669.06;;;13.94;100.00
41862;BME280;27537;57.134;-2.136;2023-05-31T01:31:27;102677.44;;;13.71;100.00
41862;BME280;27537;57.134;-2.136;2023-05-31T01:33:57;102664.28;;;13.71;100.00
41862;BME280;27537;57.134;-2.136;2023-05-31T01:36:24;102672.84;;;13.79;100.00
41862;BME280;27537;57.134;-2.136;2023-05-31T01:38:51;102677.47;;;13.67;100.00
41862;BME280;27537;57.134;-2.136;2023-05-31T01:41:19;102647.81;;;13.58;100.00
41862;BME280;27537;57.134;-2.136;2023-05-31T01:43:48;102684.41;;;13.72;100.00
41862;BME280;27537;57.134;-2.136;2023-05-31T01:46:17;102677.66;;;14.02;100.00
41862;BME280;27537;57.134;-2.136;2023-05-31T01:48:45;102677.69;;;14.00;100.00
41862;BME280;27537;57.134;-2.136;2023-05-31T01:51:14;102683.91;;;13.96;100.00
41862;BME280;27537;57.134;-2.136;2023-05-31T01:53:42;102674.38;;;13.91;100.00
41862;BME280;27537;57.134;-2.136;2023-05-31T01:56:09;102677.81;;;13.94;100.00
41862;BME280;27537;57.134;-2.136;2023-05-31T01:58:39;102673.53;;;13.90;100.00
41862;BME280;27537;57.134;-2.136;2023-05-31T02:01:11;102673.22;;;13.62;100.00
41862;BME280;27537;57.134;-2.136;2023-05-31T02:03:38;102675.75;;;13.65;100.00
41862;BME280;27537;57.134;-2.136;2023-05-31T02:06:06;102679.72;;;13.86;100.00
41862;BME280;27537;57.134;-2.136;2023-05-31T02:08:33;102676.81;;;14.00;100.00
41862;BME280;27537;57.134;-2.136;2023-05-31T02:10:59;102678.69;;;13.95;100.00
41862;BME280;27537;57.134;-2.136;2023-05-31T02:13:27;102675.19;;;13.94;100.00
41862;BME280;27537;57.134;-2.136;2023-05-31T02:15:54;102673.84;;;13.75;100.00
41862;BME280;27537;57.134;-2.136;2023-05-31T02:18:22;102671.59;;;13.55;100.00
41862;BME280;27537;57.134;-2.136;2023-05-31T02:20:49;102669.59;;;13.67;100.00
41862;BME280;27537;57.134;-2.136;2023-05-31T02:23:16;102652.69;;;13.79;100.00
41862;BME280;27537;57.134;-2.136;2023-05-31T02:25:46;102683.88;;;13.98;100.00
41862;BME280;27537;57.134;-2.136;2023-05-31T02:28:14;102671.66;;;13.95;100.00
41862;BME280;27537;57.134;-2.136;2023-05-31T02:30:41;102680.53;;;13.90;100.00
41862;BME280;27537;57.134;-2.136;2023-05-31T02:33:08;102679.16;;;14.14;100.00
41862;BME280;27537;57.134;-2.136;2023-05-31T02:35:35;102671.06;;;14.23;100.00
41862;BME280;27537;57.134;-2.136;2023-05-31T02:38:02;102674.44;;;14.30;100.00
41862;BME280;27537;57.134;-2.136;2023-05-31T02:40:29;102662.25;;;14.24;100.00
41862;BME280;27537;57.134;-2.136;2023-05-31T02:42:55;102666.59;;;14.25;100.00
41862;BME280;27537;57.134;-2.136;2023-05-31T02:45:22;102666.63;;;14.23;100.00
41862;BME280;27537;57.134;-2.136;2023-05-31T02:47:49;102661.59;;;14.13;100.00
41862;BME280;27537;57.134;-2.136;2023-05-31T02:50:15;102643.94;;;14.18;100.00
41862;BME280;27537;57.134;-2.136;2023-05-31T02:52:42;102652.59;;;14.23;100.00
41862;BME280;27537;57.134;-2.136;2023-05-31T02:55:09;102608.03;;;14.14;100.00
41862;BME280;27537;57.134;-2.136;2023-05-31T02:57:36;102643.34;;;14.05;100.00
41862;BME280;27537;57.134;-2.136;2023-05-31T03:00:03;102653.81;;;14.10;100.00
41862;BME280;27537;57.134;-2.136;2023-05-31T03:02:48;102636.72;;;13.87;100.00
41862;BME280;27537;57.134;-2.136;2023-05-31T03:05:15;102634.13;;;13.85;100.00
41862;BME280;27537;57.134;-2.136;2023-05-31T03:07:43;102644.13;;;14.10;100.00
41862;BME280;27537;57.134;-2.136;2023-05-31T03:10:09;102640.38;;;14.20;100.00
41862;BME280;27537;57.134;-2.136;2023-05-31T03:12:37;102648.59;;;14.46;100.00
41862;BME280;27537;57.134;-2.136;2023-05-31T03:15:04;102645.41;;;14.31;100.00
41862;BME280;27537;57.134;-2.136;2023-05-31T03:17:31;102644.63;;;14.28;100.00
41862;BME280;27537;57.134;-2.136;2023-05-31T03:19:58;102645.34;;;14.34;100.00
41862;BME280;27537;57.134;-2.136;2023-05-31T03:22:25;102638.44;;;14.29;100.00
41862;BME280;27537;57.134;-2.136;2023-05-31T03:24:52;102647.97;;;14.34;100.00
41862;BME280;27537;57.134;-2.136;2023-05-31T03:27:19;102652.53;;;14.28;100.00
41862;BME280;27537;57.134;-2.136;2023-05-31T03:29:46;102654.19;;;14.30;100.00
41862;BME280;27537;57.134;-2.136;2023-05-31T03:32:12;102648.06;;;14.30;100.00
41862;BME280;27537;57.134;-2.136;2023-05-31T03:34:39;102643.34;;;14.05;100.00
41862;BME280;27537;57.134;-2.136;2023-05-31T03:37:06;102638.03;;;14.08;100.00
41862;BME280;27537;57.134;-2.136;2023-05-31T03:39:33;102651.84;;;14.18;100.00
41862;BME280;27537;57.134;-2.136;2023-05-31T03:42:00;102651.03;;;14.14;100.00
41862;BME280;27537;57.134;-2.136;2023-05-31T03:44:28;102655.53;;;14.09;100.00
41862;BME280;27537;57.134;-2.136;2023-05-31T03:46:54;102659.25;;;14.00;100.00
41862;BME280;27537;57.134;-2.136;2023-05-31T03:49:21;102645.03;;;14.08;100.00
41862;BME280;27537;57.134;-2.136;2023-05-31T03:51:48;102651.22;;;14.07;100.00
41862;BME280;27537;57.134;-2.136;2023-05-31T03:54:15;102654.91;;;13.98;100.00
41862;BME280;27537;57.134;-2.136;2023-05-31T03:56:41;102656.88;;;13.88;100.00
41862;BME280;27537;57.134;-2.136;2023-05-31T03:59:08;102659.31;;;13.97;100.00
41862;BME280;27537;57.134;-2.136;2023-05-31T04:01:35;102646.44;;;13.83;100.00
41862;BME280;27537;57.134;-2.136;2023-05-31T04:04:02;102648.97;;;13.88;100.00
41862;BME280;27537;57.134;-2.136;2023-05-31T04:06:29;102661.88;;;14.00;100.00
41862;BME280;27537;57.134;-2.136;2023-05-31T04:08:56;102655.91;;;13.94;100.00
41862;BME280;27537;57.134;-2.136;2023-05-31T04:11:23;102661.06;;;13.97;100.00
41862;BME280;27537;57.134;-2.136;2023-05-31T04:13:50;102652.50;;;13.89;100.00
41862;BME280;27537;57.134;-2.136;2023-05-31T04:16:16;102664.69;;;13.93;100.00
41862;BME280;27537;57.134;-2.136;2023-05-31T04:18:43;102656.03;;;13.86;100.00
41862;BME280;27537;57.134;-2.136;2023-05-31T04:21:10;102669.19;;;13.86;100.00
41862;BME280;27537;57.134;-2.136;2023-05-31T04:23:37;102671.94;;;13.81;100.00
41862;BME280;27537;57.134;-2.136;2023-05-31T04:26:03;102660.72;;;13.72;100.00
41862;BME280;27537;57.134;-2.136;2023-05-31T04:28:31;102652.84;;;13.70;100.00
41862;BME280;27537;57.134;-2.136;2023-05-31T04:30:58;102653.53;;;13.80;100.00
41862;BME280;27537;57.134;-2.136;2023-05-31T04:33:25;102656.38;;;13.71;100.00
41862;BME280;27537;57.134;-2.136;2023-05-31T04:35:56;102651.88;;;13.76;100.00
41862;BME280;27537;57.134;-2.136;2023-05-31T04:38:24;102662.25;;;13.83;100.00
41862;BME280;27537;57.134;-2.136;2023-05-31T04:40:54;102659.91;;;13.68;100.00
41862;BME280;27537;57.134;-2.136;2023-05-31T04:43:24;102660.25;;;13.51;100.00
41862;BME280;27537;57.134;-2.136;2023-05-31T04:45:53;102659.28;;;13.57;100.00
41862;BME280;27537;57.134;-2.136;2023-05-31T04:48:21;102673.78;;;13.78;100.00
41862;BME280;27537;57.134;-2.136;2023-05-31T04:50:48;102671.25;;;13.72;100.00
41862;BME280;27537;57.134;-2.136;2023-05-31T04:53:15;102671.34;;;13.67;100.00
41862;BME280;27537;57.134;-2.136;2023-05-31T04:55:42;102667.75;;;13.71;100.00
41862;BME280;27537;57.134;-2.136;2023-05-31T04:58:08;102662.69;;;13.62;100.00
41862;BME280;27537;57.134;-2.136;2023-05-31T05:00:35;102666.94;;;13.67;100.00
41862;BME280;27537;57.134;-2.136;2023-05-31T05:03:03;102661.78;;;13.61;100.00
41862;BME280;27537;57.134;-2.136;2023-05-31T05:05:31;102660.06;;;13.62;100.00
41862;BME280;27537;57.134;-2.136;2023-05-31T05:07:58;102657.09;;;13.77;100.00
41862;BME280;27537;57.134;-2.136;2023-05-31T05:10:25;102671.06;;;13.81;100.00
41862;BME280;27537;57.134;-2.136;2023-05-31T05:12:51;102656.41;;;13.69;100.00
41862;BME280;27537;57.134;-2.136;2023-05-31T05:15:18;102655.47;;;13.70;100.00
41862;BME280;27537;57.134;-2.136;2023-05-31T05:17:45;102666.19;;;13.62;100.00
41862;BME280;27537;57.134;-2.136;2023-05-31T05:20:12;102662.84;;;13.53;100.00
41862;BME280;27537;57.134;-2.136;2023-05-31T05:22:41;102670.59;;;13.62;100.00
41862;BME280;27537;57.134;-2.136;2023-05-31T05:25:08;102670.66;;;13.57;100.00
41862;BME280;27537;57.134;-2.136;2023-05-31T05:27:35;102671.44;;;13.62;100.00
41862;BME280;27537;57.134;-2.136;2023-05-31T05:30:02;102674.75;;;13.72;100.00
41862;BME280;27537;57.134;-2.136;2023-05-31T05:32:29;102673.34;;;13.54;100.00
41862;BME280;27537;57.134;-2.136;2023-05-31T05:34:56;102666.94;;;13.69;100.00
41862;BME280;27537;57.134;-2.136;2023-05-31T05:37:23;102661.56;;;13.74;100.00
41862;BME280;27537;57.134;-2.136;2023-05-31T05:39:49;102649.41;;;13.66;100.00
41862;BME280;27537;57.134;-2.136;2023-05-31T05:42:16;102671.97;;;13.80;100.00
41862;BME280;27537;57.134;-2.136;2023-05-31T05:44:43;102674.56;;;13.81;100.00
41862;BME280;27537;57.134;-2.136;2023-05-31T05:47:09;102668.47;;;13.79;100.00
41862;BME280;27537;57.134;-2.136;2023-05-31T05:49:36;102667.63;;;13.77;100.00
41862;BME280;27537;57.134;-2.136;2023-05-31T05:52:03;102663.88;;;13.89;100.00
41862;BME280;27537;57.134;-2.136;2023-05-31T05:54:30;102666.84;;;13.72;100.00
41862;BME280;27537;57.134;-2.136;2023-05-31T05:56:57;102662.91;;;13.51;100.00
41862;BME280;27537;57.134;-2.136;2023-05-31T05:59:23;102671.34;;;13.67;100.00
41862;BME280;27537;57.134;-2.136;2023-05-31T06:01:50;102667.94;;;13.62;100.00
41862;BME280;27537;57.134;-2.136;2023-05-31T06:04:17;102665.47;;;13.53;100.00
41862;BME280;27537;57.134;-2.136;2023-05-31T06:06:43;102668.84;;;13.61;100.00
41862;BME280;27537;57.134;-2.136;2023-05-31T06:09:12;102665.44;;;13.54;100.00
41862;BME280;27537;57.134;-2.136;2023-05-31T06:11:39;102664.63;;;13.51;100.00
41862;BME280;27537;57.134;-2.136;2023-05-31T06:14:05;102655.97;;;13.45;100.00
41862;BME280;27537;57.134;-2.136;2023-05-31T06:16:32;102672.41;;;13.58;100.00
41862;BME280;27537;57.134;-2.136;2023-05-31T06:18:59;102662.09;;;13.47;100.00
41862;BME280;27537;57.134;-2.136;2023-05-31T06:21:26;102673.13;;;13.65;100.00
41862;BME280;27537;57.134;-2.136;2023-05-31T06:23:53;102665.56;;;13.50;100.00
41862;BME280;27537;57.134;-2.136;2023-05-31T06:26:20;102670.91;;;13.43;100.00
41862;BME280;27537;57.134;-2.136;2023-05-31T06:28:47;102667.78;;;13.21;100.00
41862;BME280;27537;57.134;-2.136;2023-05-31T06:31:13;102663.19;;;13.34;100.00
41862;BME280;27537;57.134;-2.136;2023-05-31T06:33:40;102661.41;;;13.36;100.00
41862;BME280;27537;57.134;-2.136;2023-05-31T06:36:07;102668.50;;;13.29;100.00
41862;BME280;27537;57.134;-2.136;2023-05-31T06:38:34;102663.97;;;13.41;100.00
41862;BME280;27537;57.134;-2.136;2023-05-31T06:41:01;102670.28;;;13.29;100.00
41862;BME280;27537;57.134;-2.136;2023-05-31T06:43:28;102655.41;;;13.28;100.00
41862;BME280;27537;57.134;-2.136;2023-05-31T06:45:55;102658.94;;;13.25;100.00
41862;BME280;27537;57.134;-2.136;2023-05-31T06:48:21;102664.44;;;13.11;100.00
41862;BME280;27537;57.134;-2.136;2023-05-31T06:50:48;102648.63;;;13.15;100.00
41862;BME280;27537;57.134;-2.136;2023-05-31T06:53:15;102658.25;;;13.16;100.00
41862;BME280;27537;57.134;-2.136;2023-05-31T06:55:42;102646.75;;;13.21;100.00
41862;BME280;27537;57.134;-2.136;2023-05-31T06:58:08;102641.78;;;13.04;100.00
41862;BME280;27537;57.134;-2.136;2023-05-31T07:00:35;102651.25;;;13.15;100.00
41862;BME280;27537;57.134;-2.136;2023-05-31T07:03:02;102639.72;;;13.20;100.00
41862;BME280;27537;57.134;-2.136;2023-05-31T07:05:29;102646.75;;;13.21;100.00
41862;BME280;27537;57.134;-2.136;2023-05-31T07:07:57;102644.81;;;13.29;100.00
41862;BME280;27537;57.134;-2.136;2023-05-31T07:10:23;102649.34;;;13.24;100.00
41862;BME280;27537;57.134;-2.136;2023-05-31T07:12:50;102641.28;;;13.35;100.00
41862;BME280;27537;57.134;-2.136;2023-05-31T07:15:17;102642.25;;;13.28;100.00
41862;BME280;27537;57.134;-2.136;2023-05-31T07:17:44;102647.59;;;13.22;100.00
41862;BME280;27537;57.134;-2.136;2023-05-31T07:20:12;102653.91;;;13.11;100.00
41862;BME280;27537;57.134;-2.136;2023-05-31T07:22:39;102649.44;;;13.17;100.00
41862;BME280;27537;57.134;-2.136;2023-05-31T07:25:06;102648.47;;;13.22;100.00
41862;BME280;27537;57.134;-2.136;2023-05-31T07:27:33;102651.09;;;13.22;100.00
41862;BME280;27537;57.134;-2.136;2023-05-31T07:30:00;102644.13;;;13.20;100.00
41862;BME280;27537;57.134;-2.136;2023-05-31T07:32:27;102645.09;;;13.16;100.00
41862;BME280;27537;57.134;-2.136;2023-05-31T07:34:54;102647.81;;;13.11;100.00
41862;BME280;27537;57.134;-2.136;2023-05-31T07:37:30;102629.75;;;12.91;100.00
41862;BME280;27537;57.134;-2.136;2023-05-31T07:39:58;102636.41;;;13.12;100.00
41862;BME280;27537;57.134;-2.136;2023-05-31T07:42:24;102636.41;;;13.12;100.00
41862;BME280;27537;57.134;-2.136;2023-05-31T07:44:51;102633.06;;;13.02;100.00
41862;BME280;27537;57.134;-2.136;2023-05-31T07:47:18;102630.84;;;13.27;100.00
41862;BME280;27537;57.134;-2.136;2023-05-31T07:49:46;102640.47;;;13.32;100.00
41862;BME280;27537;57.134;-2.136;2023-05-31T07:52:13;102629.03;;;13.33;100.00
41862;BME280;27537;57.134;-2.136;2023-05-31T07:54:41;102636.28;;;13.18;100.00
41862;BME280;27537;57.134;-2.136;2023-05-31T07:57:08;102635.88;;;13.41;100.00
41862;BME280;27537;57.134;-2.136;2023-05-31T07:59:35;102634.06;;;13.43;100.00
41862;BME280;27537;57.134;-2.136;2023-05-31T08:02:01;102606.25;;;13.32;100.00
41862;BME280;27537;57.134;-2.136;2023-05-31T08:04:30;102630.81;;;13.29;100.00
41862;BME280;27537;57.134;-2.136;2023-05-31T08:06:58;102631.69;;;13.31;100.00
41862;BME280;27537;57.134;-2.136;2023-05-31T08:09:25;102630.28;;;13.10;100.00
41862;BME280;27537;57.134;-2.136;2023-05-31T08:11:52;102628.34;;;13.20;100.00
41862;BME280;27537;57.134;-2.136;2023-05-31T08:14:19;102636.88;;;13.34;100.00
41862;BME280;27537;57.134;-2.136;2023-05-31T08:16:47;102637.75;;;13.35;100.00
41862;BME280;27537;57.134;-2.136;2023-05-31T08:19:16;102617.22;;;13.05;100.00
41862;BME280;27537;57.134;-2.136;2023-05-31T08:21:42;102627.22;;;13.35;100.00
41862;BME280;27537;57.134;-2.136;2023-05-31T08:24:12;102627.19;;;13.36;100.00
41862;BME280;27537;57.134;-2.136;2023-05-31T08:26:39;102624.66;;;13.30;100.00
41862;BME280;27537;57.134;-2.136;2023-05-31T08:29:05;102626.00;;;13.04;100.00
41862;BME280;27537;57.134;-2.136;2023-05-31T08:31:34;102630.81;;;13.29;100.00
41862;BME280;27537;57.134;-2.136;2023-05-31T08:34:01;102628.34;;;13.21;100.00
41862;BME280;27537;57.134;-2.136;2023-05-31T08:36:28;102615.00;;;13.30;100.00
41862;BME280;27537;57.134;-2.136;2023-05-31T08:38:55;102620.09;;;13.41;100.00
41862;BME280;27537;57.134;-2.136;2023-05-31T08:41:22;102617.84;;;13.65;100.00
41862;BME280;27537;57.134;-2.136;2023-05-31T08:43:49;102628.59;;;13.54;100.00
41862;BME280;27537;57.134;-2.136;2023-05-31T08:46:16;102625.31;;;13.44;100.00
41862;BME280;27537;57.134;-2.136;2023-05-31T08:49:10;102609.47;;;13.47;100.00
41862;BME280;27537;57.134;-2.136;2023-05-31T08:51:39;102607.41;;;13.62;100.00
41862;BME280;27537;57.134;-2.136;2023-05-31T08:54:08;102599.13;;;13.37;100.00
41862;BME280;27537;57.134;-2.136;2023-05-31T08:56:38;102614.56;;;13.55;100.00
41862;BME280;27537;57.134;-2.136;2023-05-31T08:59:09;102603.53;;;13.35;100.00
41862;BME280;27537;57.134;-2.136;2023-05-31T09:01:38;102594.41;;;13.53;100.00
41862;BME280;27537;57.134;-2.136;2023-05-31T09:04:05;102595.88;;;13.67;100.00
41862;BME280;27537;57.134;-2.136;2023-05-31T09:06:33;102608.34;;;13.58;100.00
41862;BME280;27537;57.134;-2.136;2023-05-31T09:09:00;102596.75;;;13.66;100.00
41862;BME280;27537;57.134;-2.136;2023-05-31T09:11:28;102609.78;;;13.74;100.00
41862;BME280;27537;57.134;-2.136;2023-05-31T09:13:55;102600.44;;;13.59;100.00
41862;BME280;27537;57.134;-2.136;2023-05-31T09:16:23;102607.31;;;13.65;100.00
41862;BME280;27537;57.134;-2.136;2023-05-31T09:18:59;102598.19;;;13.83;100.00
41862;BME280;27537;57.134;-2.136;2023-05-31T09:21:28;102613.34;;;13.72;100.00
41862;BME280;27537;57.134;-2.136;2023-05-31T09:23:57;102612.72;;;13.59;100.00
41862;BME280;27537;57.134;-2.136;2023-05-31T09:26:24;102621.13;;;13.78;100.00
41862;BME280;27537;57.134;-2.136;2023-05-31T09:28:51;102600.84;;;13.83;100.00
41862;BME280;27537;57.134;-2.136;2023-05-31T09:31:19;102599.16;;;13.77;100.00
41862;BME280;27537;57.134;-2.136;2023-05-31T09:33:48;102606.44;;;13.66;100.00
41862;BME280;27537;57.134;-2.136;2023-05-31T09:36:23;102610.97;;;13.59;100.00
41862;BME280;27537;57.134;-2.136;2023-05-31T09:38:58;102612.41;;;13.76;100.00
41862;BME280;27537;57.134;-2.136;2023-05-31T09:41:27;102604.69;;;13.65;100.00
41862;BME280;27537;57.134;-2.136;2023-05-31T09:43:54;102601.97;;;13.70;100.00
41862;BME280;27537;57.134;-2.136;2023-05-31T09:46:22;102590.59;;;13.69;100.00
41862;BME280;27537;57.134;-2.136;2023-05-31T09:51:25;102607.38;;;13.63;100.00
41862;BME280;27537;57.134;-2.136;2023-05-31T09:53:52;102598.75;;;13.55;100.00
41862;BME280;27537;57.134;-2.136;2023-05-31T09:56:23;102595.28;;;13.55;100.00
41862;BME280;27537;57.134;-2.136;2023-05-31T09:58:50;102605.94;;;13.47;100.00
41862;BME280;27537;57.134;-2.136;2023-05-31T10:01:18;102590.94;;;13.51;100.00
41862;BME280;27537;57.134;-2.136;2023-05-31T10:03:48;102592.41;;;13.67;100.00
41862;BME280;27537;57.134;-2.136;2023-05-31T10:06:18;102608.50;;;13.50;100.00
41862;BME280;27537;57.134;-2.136;2023-05-31T10:08:45;102590.69;;;13.63;100.00
41862;BME280;27537;57.134;-2.136;2023-05-31T10:11:15;102600.13;;;13.75;100.00
41862;BME280;27537;57.134;-2.136;2023-05-31T10:13:44;102591.44;;;13.70;100.00
41862;BME280;27537;57.134;-2.136;2023-05-31T10:16:14;102605.50;;;13.68;100.00
41862;BME280;27537;57.134;-2.136;2023-05-31T10:18:46;102576.47;;;13.72;100.00
41862;BME280;27537;57.134;-2.136;2023-05-31T10:21:17;102582.03;;;13.58;100.00
41862;BME280;27537;57.134;-2.136;2023-05-31T10:24:04;102597.84;;;13.98;100.00
41862;BME280;27537;57.134;-2.136;2023-05-31T10:29:48;102575.72;;;13.66;100.00
41862;BME280;27537;57.134;-2.136;2023-05-31T10:32:28;102598.34;;;13.75;100.00
41862;BME280;27537;57.134;-2.136;2023-05-31T10:34:56;102590.34;;;13.80;100.00
41862;BME280;27537;57.134;-2.136;2023-05-31T10:37:25;102601.31;;;14.00;100.00
41862;BME280;27537;57.134;-2.136;2023-05-31T10:42:43;102598.56;;;14.05;100.00
41862;BME280;27537;57.134;-2.136;2023-05-31T10:45:15;102597.63;;;14.08;100.00
41862;BME280;27537;57.134;-2.136;2023-05-31T10:47:51;102593.03;;;14.17;100.00
41862;BME280;27537;57.134;-2.136;2023-05-31T10:50:19;102587.22;;;14.03;100.00
41862;BME280;27537;57.134;-2.136;2023-05-31T10:52:52;102606.72;;;14.33;100.00
41862;BME280;27537;57.134;-2.136;2023-05-31T10:55:21;102609.72;;;14.16;100.00
41862;BME280;27537;57.134;-2.136;2023-05-31T10:57:55;102608.06;;;14.12;100.00
41862;BME280;27537;57.134;-2.136;2023-05-31T11:00:23;102605.72;;;14.00;100.00
41862;BME280;27537;57.134;-2.136;2023-05-31T11:02:52;102611.22;;;13.89;100.00
41862;BME280;27537;57.134;-2.136;2023-05-31T11:05:23;102604.38;;;13.80;100.00
41862;BME280;27537;57.134;-2.136;2023-05-31T11:07:53;102607.06;;;13.77;100.00
41862;BME280;27537;57.134;-2.136;2023-05-31T11:10:25;102603.38;;;13.86;100.00
41862;BME280;27537;57.134;-2.136;2023-05-31T11:12:55;102610.84;;;14.06;100.00
41862;BME280;27537;57.134;-2.136;2023-05-31T11:15:22;102610.22;;;13.95;100.00
41862;BME280;27537;57.134;-2.136;2023-05-31T11:17:54;102609.44;;;13.90;100.00
41862;BME280;27537;57.134;-2.136;2023-05-31T11:20:21;102606.50;;;14.03;100.00
41862;BME280;27537;57.134;-2.136;2023-05-31T11:23:30;102610.91;;;14.03;100.00
41862;BME280;27537;57.134;-2.136;2023-05-31T11:26:07;102609.81;;;14.13;100.00
41862;BME280;27537;57.134;-2.136;2023-05-31T11:28:59;102607.06;;;14.18;100.00
41862;BME280;27537;57.134;-2.136;2023-05-31T11:34:18;102584.97;;;13.84;100.00
41862;BME280;27537;57.134;-2.136;2023-05-31T11:36:45;102586.75;;;13.84;100.00
41862;BME280;27537;57.134;-2.136;2023-05-31T11:39:12;102596.41;;;13.85;100.00
41862;BME280;27537;57.134;-2.136;2023-05-31T11:41:39;102595.81;;;13.71;100.00
41862;BME280;27537;57.134;-2.136;2023-05-31T11:44:10;102591.53;;;13.65;100.00
41862;BME280;27537;57.134;-2.136;2023-05-31T11:46:44;102569.31;;;13.78;100.00
41862;BME280;27537;57.134;-2.136;2023-05-31T11:49:13;102590.28;;;13.83;100.00
41862;BME280;27537;57.134;-2.136;2023-05-31T11:51:43;102585.97;;;13.79;100.00
41862;BME280;27537;57.134;-2.136;2023-05-31T11:54:11;102590.94;;;13.93;100.00
41862;BME280;27537;57.134;-2.136;2023-05-31T11:56:41;102585.66;;;13.94;100.00
41862;BME280;27537;57.134;-2.136;2023-05-31T11:59:08;102594.09;;;14.09;100.00
41862;BME280;27537;57.134;-2.136;2023-05-31T12:01:36;102571.34;;;14.06;100.00
41862;BME280;27537;57.134;-2.136;2023-05-31T12:04:02;102581.75;;;14.11;100.00
41862;BME280;27537;57.134;-2.136;2023-05-31T12:06:29;102568.44;;;14.18;100.00
41862;BME280;27537;57.134;-2.136;2023-05-31T12:08:56;102577.41;;;14.10;100.00
41862;BME280;27537;57.134;-2.136;2023-05-31T12:11:23;102571.09;;;14.17;100.00
41862;BME280;27537;57.134;-2.136;2023-05-31T12:13:53;102574.31;;;13.91;100.00
41862;BME280;27537;57.134;-2.136;2023-05-31T12:16:20;102586.34;;;14.02;100.00
41862;BME280;27537;57.134;-2.136;2023-05-31T12:18:47;102567.91;;;14.02;100.00
41862;BME280;27537;57.134;-2.136;2023-05-31T12:21:15;102573.16;;;14.41;100.00
41862;BME280;27537;57.134;-2.136;2023-05-31T12:23:56;102578.53;;;13.99;100.00
41862;BME280;27537;57.134;-2.136;2023-05-31T12:26:24;102576.72;;;14.01;100.00
41862;BME280;27537;57.134;-2.136;2023-05-31T12:28:54;102559.31;;;13.94;100.00
41862;BME280;27537;57.134;-2.136;2023-05-31T12:31:23;102555.84;;;14.30;100.00
41862;BME280;27537;57.134;-2.136;2023-05-31T12:34:06;102575.81;;;14.40;100.00
41862;BME280;27537;57.134;-2.136;2023-05-31T12:36:41;102570.38;;;14.46;100.00
41862;BME280;27537;57.134;-2.136;2023-05-31T12:39:13;102566.34;;;14.33;100.00
41862;BME280;27537;57.134;-2.136;2023-05-31T12:41:44;102568.31;;;14.23;100.00
41862;BME280;27537;57.134;-2.136;2023-05-31T12:44:22;102565.84;;;14.87;100.00
41862;BME280;27537;57.134;-2.136;2023-05-31T12:46:50;102565.25;;;14.77;100.00
41862;BME280;27537;57.134;-2.136;2023-05-31T12:49:21;102562.13;;;14.61;100.00
41862;BME280;27537;57.134;-2.136;2023-05-31T12:51:56;102562.56;;;14.43;100.00